sensor_id;sensor_type;location;lat;lon;timestamp;temperature;humidity
52555;DHT22;38455;52.710;6.502;2023-12-20T00:01:05;5.70;99.90
52555;DHT22;38455;52.710;6.502;2023-12-20T00:03:30;5.70;99.90
52555;DHT22;38455;52.710;6.502;2023-12-20T00:05:56;5.70;99.90
52555;DHT22;38455;52.710;6.502;2023-12-20T00:08:22;5.80;99.90
52555;DHT22;38455;52.710;6.502;2023-12-20T00:10:47;5.90;99.90
52555;DHT22;38455;52.710;6.502;2023-12-20T00:13:13;6.00;99.90
52555;DHT22;38455;52.710;6.502;2023-12-20T00:15:39;6.00;99.90
52555;DHT22;38455;52.710;6.502;2023-12-20T00:18:04;6.10;99.90
52555;DHT22;38455;52.710;6.502;2023-12-20T00:20:30;6.00;99.90
52555;DHT22;38455;52.710;6.502;2023-12-20T00:22:57;6.00;99.90
52555;DHT22;38455;52.710;6.502;2023-12-20T00:25:26;5.90;99.90
52555;DHT22;38455;52.710;6.502;2023-12-20T00:27:52;5.80;99.90
52555;DHT22;38455;52.710;6.502;2023-12-20T00:30:18;5.80;99.90
52555;DHT22;38455;52.710;6.502;2023-12-20T00:32:44;5.70;99.90
52555;DHT22;38455;52.710;6.502;2023-12-20T00:35:15;5.70;99.90
52555;DHT22;38455;52.710;6.502;2023-12-20T00:37:41;5.60;99.90
52555;DHT22;38455;52.710;6.502;2023-12-20T00:40:07;5.60;99.90
52555;DHT22;38455;52.710;6.502;2023-12-20T00:42:33;5.60;99.90
52555;DHT22;38455;52.710;6.502;2023-12-20T00:44:59;5.50;99.90
52555;DHT22;38455;52.710;6.502;2023-12-20T00:47:25;5.50;99.90
52555;DHT22;38455;52.710;6.502;2023-12-20T00:49:51;5.60;99.90
52555;DHT22;38455;52.710;6.502;2023-12-20T00:52:17;5.50;99.90
52555;DHT22;38455;52.710;6.502;2023-12-20T00:54:43;5.50;99.90
52555;DHT22;38455;52.710;6.502;2023-12-20T00:57:09;5.50;99.90
52555;DHT22;38455;52.710;6.502;2023-12-20T00:59:35;5.50;99.90
52555;DHT22;38455;52.710;6.502;2023-12-20T01:02:01;5.50;99.90
52555;DHT22;38455;52.710;6.502;2023-12-20T01:04:27;5.50;99.90
52555;DHT22;38455;52.710;6.502;2023-12-20T01:06:52;5.50;99.90
52555;DHT22;38455;52.710;6.502;2023-12-20T01:09:18;5.40;99.90
52555;DHT22;38455;52.710;6.502;2023-12-20T01:11:44;5.40;99.90
52555;DHT22;38455;52.710;6.502;2023-12-20T01:14:12;5.40;99.90
52555;DHT22;38455;52.710;6.502;2023-12-20T01:16:38;5.40;99.90
52555;DHT22;38455;52.710;6.502;2023-12-20T01:19:03;5.50;99.90
52555;DHT22;38455;52.710;6.502;2023-12-20T01:21:29;5.50;99.90
52555;DHT22;38455;52.710;6.502;2023-12-20T01:23:55;5.60;99.90
52555;DHT22;38455;52.710;6.502;2023-12-20T01:26:20;5.60;99.90
52555;DHT22;38455;52.710;6.502;2023-12-20T01:28:46;5.60;99.90
52555;DHT22;38455;52.710;6.502;2023-12-20T01:31:11;5.70;99.90
52555;DHT22;38455;52.710;6.502;2023-12-20T01:33:37;5.70;99.90
52555;DHT22;38455;52.710;6.502;2023-12-20T01:36:03;5.70;99.90
52555;DHT22;38455;52.710;6.502;2023-12-20T01:38:29;5.70;99.90
52555;DHT22;38455;52.710;6.502;2023-12-20T01:40:55;5.70;99.90
52555;DHT22;38455;52.710;6.502;2023-12-20T01:43:21;5.70;99.90
52555;DHT22;38455;52.710;6.502;2023-12-20T01:45:47;5.60;99.90
52555;DHT22;38455;52.710;6.502;2023-12-20T01:48:14;5.60;99.90
52555;DHT22;38455;52.710;6.502;2023-12-20T01:50:41;5.60;99.90
52555;DHT22;38455;52.710;6.502;2023-12-20T01:53:10;5.60;99.90
52555;DHT22;38455;52.710;6.502;2023-12-20T01:55:40;5.60;99.90
52555;DHT22;38455;52.710;6.502;2023-12-20T01:58:07;5.60;99.90
52555;DHT22;38455;52.710;6.502;2023-12-20T02:00:34;5.50;99.90
52555;DHT22;38455;52.710;6.502;2023-12-20T02:03:03;5.60;99.90
52555;DHT22;38455;52.710;6.502;2023-12-20T02:05:30;5.60;99.90
52555;DHT22;38455;52.710;6.502;2023-12-20T02:07:56;5.60;99.90
52555;DHT22;38455;52.710;6.502;2023-12-20T02:10:23;5.60;99.90
52555;DHT22;38455;52.710;6.502;2023-12-20T02:12:49;5.60;99.90
52555;DHT22;38455;52.710;6.502;2023-12-20T02:15:14;5.70;99.90
52555;DHT22;38455;52.710;6.502;2023-12-20T02:17:40;5.80;99.90
52555;DHT22;38455;52.710;6.502;2023-12-20T02:20:06;5.90;99.90
52555;DHT22;38455;52.710;6.502;2023-12-20T02:22:32;5.90;99.90
52555;DHT22;38455;52.710;6.502;2023-12-20T02:24:58;5.90;99.90
52555;DHT22;38455;52.710;6.502;2023-12-20T02:27:24;6.00;99.90
52555;DHT22;38455;52.710;6.502;2023-12-20T02:29:50;6.00;99.90
52555;DHT22;38455;52.710;6.502;2023-12-20T02:32:17;6.10;99.90
52555;DHT22;38455;52.710;6.502;2023-12-20T02:34:43;6.00;99.90
52555;DHT22;38455;52.710;6.502;2023-12-20T02:37:09;6.10;99.90
52555;DHT22;38455;52.710;6.502;2023-12-20T02:39:34;6.10;99.90
52555;DHT22;38455;52.710;6.502;2023-12-20T02:42:00;6.10;99.90
52555;DHT22;38455;52.710;6.502;2023-12-20T02:44:26;6.10;99.90
52555;DHT22;38455;52.710;6.502;2023-12-20T02:46:52;6.20;99.90
52555;DHT22;38455;52.710;6.502;2023-12-20T02:49:17;6.20;99.90
52555;DHT22;38455;52.710;6.502;2023-12-20T02:51:43;6.20;99.90
52555;DHT22;38455;52.710;6.502;2023-12-20T02:54:09;6.20;99.90
52555;DHT22;38455;52.710;6.502;2023-12-20T02:56:35;6.20;99.90
52555;DHT22;38455;52.710;6.502;2023-12-20T02:59:01;6.20;99.90
52555;DHT22;38455;52.710;6.502;2023-12-20T03:01:28;6.20;99.90
52555;DHT22;38455;52.710;6.502;2023-12-20T03:03:53;6.20;99.90
52555;DHT22;38455;52.710;6.502;2023-12-20T03:06:19;6.10;99.90
52555;DHT22;38455;52.710;6.502;2023-12-20T03:08:45;6.10;99.90
52555;DHT22;38455;52.710;6.502;2023-12-20T03:11:11;6.10;99.90
52555;DHT22;38455;52.710;6.502;2023-12-20T03:13:36;6.20;99.90
52555;DHT22;38455;52.710;6.502;2023-12-20T03:16:09;6.20;99.90
52555;DHT22;38455;52.710;6.502;2023-12-20T03:18:35;6.20;99.90
52555;DHT22;38455;52.710;6.502;2023-12-20T03:21:01;6.20;99.90
52555;DHT22;38455;52.710;6.502;2023-12-20T03:23:27;6.20;99.90
52555;DHT22;38455;52.710;6.502;2023-12-20T03:25:52;6.30;99.90
52555;DHT22;38455;52.710;6.502;2023-12-20T03:28:18;6.30;99.90
52555;DHT22;38455;52.710;6.502;2023-12-20T03:30:44;6.30;99.90
52555;DHT22;38455;52.710;6.502;2023-12-20T03:33:10;6.30;99.90
52555;DHT22;38455;52.710;6.502;2023-12-20T03:35:36;6.20;99.90
52555;DHT22;38455;52.710;6.502;2023-12-20T03:38:02;6.20;99.90
52555;DHT22;38455;52.710;6.502;2023-12-20T03:40:28;6.10;99.90
52555;DHT22;38455;52.710;6.502;2023-12-20T03:42:53;6.10;99.90
52555;DHT22;38455;52.710;6.502;2023-12-20T03:45:19;6.20;99.90
52555;DHT22;38455;52.710;6.502;2023-12-20T03:47:45;6.20;99.90
52555;DHT22;38455;52.710;6.502;2023-12-20T03:50:10;6.20;99.90
52555;DHT22;38455;52.710;6.502;2023-12-20T03:52:36;6.20;99.90
52555;DHT22;38455;52.710;6.502;2023-12-20T03:55:02;6.20;99.90
52555;DHT22;38455;52.710;6.502;2023-12-20T03:57:28;6.30;99.90
52555;DHT22;38455;52.710;6.502;2023-12-20T03:59:54;6.30;99.90
52555;DHT22;38455;52.710;6.502;2023-12-20T04:02:19;6.30;99.90
52555;DHT22;38455;52.710;6.502;2023-12-20T04:04:45;6.30;99.90
52555;DHT22;38455;52.710;6.502;2023-12-20T04:07:11;6.30;99.90
52555;DHT22;38455;52.710;6.502;2023-12-20T04:09:36;6.30;99.90
52555;DHT22;38455;52.710;6.502;2023-12-20T04:12:02;6.30;99.90
52555;DHT22;38455;52.710;6.502;2023-12-20T04:14:28;6.30;99.90
52555;DHT22;38455;52.710;6.502;2023-12-20T04:16:54;6.30;99.90
52555;DHT22;38455;52.710;6.502;2023-12-20T04:19:19;6.30;99.90
52555;DHT22;38455;52.710;6.502;2023-12-20T04:21:45;6.30;99.90
52555;DHT22;38455;52.710;6.502;2023-12-20T04:24:11;6.40;99.90
52555;DHT22;38455;52.710;6.502;2023-12-20T04:26:36;6.40;99.90
52555;DHT22;38455;52.710;6.502;2023-12-20T04:29:02;6.40;99.90
52555;DHT22;38455;52.710;6.502;2023-12-20T04:31:28;6.50;99.90
52555;DHT22;38455;52.710;6.502;2023-12-20T04:33:53;6.50;99.90
52555;DHT22;38455;52.710;6.502;2023-12-20T04:36:19;6.50;99.90
52555;DHT22;38455;52.710;6.502;2023-12-20T04:38:45;6.50;99.90
52555;DHT22;38455;52.710;6.502;2023-12-20T04:41:10;6.60;99.90
52555;DHT22;38455;52.710;6.502;2023-12-20T04:43:36;6.60;99.90
52555;DHT22;38455;52.710;6.502;2023-12-20T04:46:03;6.60;99.90
52555;DHT22;38455;52.710;6.502;2023-12-20T04:48:28;6.60;99.90
52555;DHT22;38455;52.710;6.502;2023-12-20T04:50:54;6.60;99.90
52555;DHT22;38455;52.710;6.502;2023-12-20T04:53:19;6.60;99.90
52555;DHT22;38455;52.710;6.502;2023-12-20T04:55:45;6.60;99.90
52555;DHT22;38455;52.710;6.502;2023-12-20T04:58:11;6.60;99.90
52555;DHT22;38455;52.710;6.502;2023-12-20T05:00:38;6.60;99.90
52555;DHT22;38455;52.710;6.502;2023-12-20T05:03:04;6.60;99.90
52555;DHT22;38455;52.710;6.502;2023-12-20T05:05:29;6.60;99.90
52555;DHT22;38455;52.710;6.502;2023-12-20T05:07:55;6.60;99.90
52555;DHT22;38455;52.710;6.502;2023-12-20T05:10:20;6.60;99.90
52555;DHT22;38455;52.710;6.502;2023-12-20T05:12:46;6.70;99.90
52555;DHT22;38455;52.710;6.502;2023-12-20T05:15:12;6.60;99.90
52555;DHT22;38455;52.710;6.502;2023-12-20T05:17:37;6.60;99.90
52555;DHT22;38455;52.710;6.502;2023-12-20T05:20:03;6.60;99.90
52555;DHT22;38455;52.710;6.502;2023-12-20T05:22:29;6.60;99.90
52555;DHT22;38455;52.710;6.502;2023-12-20T05:24:55;6.60;99.90
52555;DHT22;38455;52.710;6.502;2023-12-20T05:27:20;6.70;99.90
52555;DHT22;38455;52.710;6.502;2023-12-20T05:29:46;6.70;99.90
52555;DHT22;38455;52.710;6.502;2023-12-20T05:32:12;6.70;99.90
52555;DHT22;38455;52.710;6.502;2023-12-20T05:34:37;6.70;99.90
52555;DHT22;38455;52.710;6.502;2023-12-20T05:37:03;6.70;99.90
52555;DHT22;38455;52.710;6.502;2023-12-20T05:39:29;6.80;99.90
52555;DHT22;38455;52.710;6.502;2023-12-20T05:41:56;6.80;99.90
52555;DHT22;38455;52.710;6.502;2023-12-20T05:44:22;6.80;99.90
52555;DHT22;38455;52.710;6.502;2023-12-20T05:46:47;6.80;99.90
52555;DHT22;38455;52.710;6.502;2023-12-20T05:49:13;6.90;99.90
52555;DHT22;38455;52.710;6.502;2023-12-20T05:51:39;6.90;99.90
52555;DHT22;38455;52.710;6.502;2023-12-20T05:54:05;6.90;99.90
52555;DHT22;38455;52.710;6.502;2023-12-20T05:56:30;6.90;99.90
52555;DHT22;38455;52.710;6.502;2023-12-20T05:58:56;6.90;99.90
52555;DHT22;38455;52.710;6.502;2023-12-20T06:01:22;6.90;99.90
52555;DHT22;38455;52.710;6.502;2023-12-20T06:03:48;7.00;99.90
52555;DHT22;38455;52.710;6.502;2023-12-20T06:06:14;7.00;99.90
52555;DHT22;38455;52.710;6.502;2023-12-20T06:08:41;7.00;99.90
52555;DHT22;38455;52.710;6.502;2023-12-20T06:11:06;7.00;99.90
52555;DHT22;38455;52.710;6.502;2023-12-20T06:13:32;7.00;99.90
52555;DHT22;38455;52.710;6.502;2023-12-20T06:15:58;7.00;99.90
52555;DHT22;38455;52.710;6.502;2023-12-20T06:18:23;7.00;99.90
52555;DHT22;38455;52.710;6.502;2023-12-20T06:20:50;7.00;99.90
52555;DHT22;38455;52.710;6.502;2023-12-20T06:23:15;7.00;99.90
52555;DHT22;38455;52.710;6.502;2023-12-20T06:25:41;7.00;99.90
52555;DHT22;38455;52.710;6.502;2023-12-20T06:28:07;7.10;99.90
52555;DHT22;38455;52.710;6.502;2023-12-20T06:30:33;7.10;99.90
52555;DHT22;38455;52.710;6.502;2023-12-20T06:32:59;7.10;99.90
52555;DHT22;38455;52.710;6.502;2023-12-20T06:35:25;7.10;99.90
52555;DHT22;38455;52.710;6.502;2023-12-20T06:37:53;7.10;99.90
52555;DHT22;38455;52.710;6.502;2023-12-20T06:40:19;7.10;99.90
52555;DHT22;38455;52.710;6.502;2023-12-20T06:42:45;7.10;99.90
52555;DHT22;38455;52.710;6.502;2023-12-20T06:45:11;7.10;99.90
52555;DHT22;38455;52.710;6.502;2023-12-20T06:47:37;7.10;99.90
52555;DHT22;38455;52.710;6.502;2023-12-20T06:50:03;7.10;99.90
52555;DHT22;38455;52.710;6.502;2023-12-20T06:52:28;7.20;99.90
52555;DHT22;38455;52.710;6.502;2023-12-20T06:54:55;7.20;99.90
52555;DHT22;38455;52.710;6.502;2023-12-20T06:57:21;7.20;99.90
52555;DHT22;38455;52.710;6.502;2023-12-20T06:59:47;7.20;99.90
52555;DHT22;38455;52.710;6.502;2023-12-20T07:02:12;7.20;99.90
52555;DHT22;38455;52.710;6.502;2023-12-20T07:04:41;7.20;99.90
52555;DHT22;38455;52.710;6.502;2023-12-20T07:07:07;7.20;99.90
52555;DHT22;38455;52.710;6.502;2023-12-20T07:09:33;7.20;99.90
52555;DHT22;38455;52.710;6.502;2023-12-20T07:11:59;7.30;99.90
52555;DHT22;38455;52.710;6.502;2023-12-20T07:14:25;7.30;99.90
52555;DHT22;38455;52.710;6.502;2023-12-20T07:16:51;7.20;99.90
52555;DHT22;38455;52.710;6.502;2023-12-20T07:19:17;7.20;99.90
52555;DHT22;38455;52.710;6.502;2023-12-20T07:21:43;7.30;99.90
52555;DHT22;38455;52.710;6.502;2023-12-20T07:24:09;7.30;99.90
52555;DHT22;38455;52.710;6.502;2023-12-20T07:26:35;7.30;99.90
52555;DHT22;38455;52.710;6.502;2023-12-20T07:29:01;7.30;99.90
52555;DHT22;38455;52.710;6.502;2023-12-20T07:31:26;7.30;99.90
52555;DHT22;38455;52.710;6.502;2023-12-20T07:33:52;7.30;99.90
52555;DHT22;38455;52.710;6.502;2023-12-20T07:36:19;7.30;99.90
52555;DHT22;38455;52.710;6.502;2023-12-20T07:38:45;7.30;99.90
52555;DHT22;38455;52.710;6.502;2023-12-20T07:41:10;7.30;99.90
52555;DHT22;38455;52.710;6.502;2023-12-20T07:43:36;7.40;99.90
52555;DHT22;38455;52.710;6.502;2023-12-20T07:46:09;7.30;99.90
52555;DHT22;38455;52.710;6.502;2023-12-20T07:48:35;7.30;99.90
52555;DHT22;38455;52.710;6.502;2023-12-20T07:51:01;7.40;99.90
52555;DHT22;38455;52.710;6.502;2023-12-20T07:53:27;7.40;99.90
52555;DHT22;38455;52.710;6.502;2023-12-20T07:55:53;7.40;99.90
52555;DHT22;38455;52.710;6.502;2023-12-20T07:58:19;7.40;99.90
52555;DHT22;38455;52.710;6.502;2023-12-20T08:00:44;7.40;99.90
52555;DHT22;38455;52.710;6.502;2023-12-20T08:03:10;7.40;99.90
52555;DHT22;38455;52.710;6.502;2023-12-20T08:05:36;7.40;99.90
52555;DHT22;38455;52.710;6.502;2023-12-20T08:08:02;7.40;99.90
52555;DHT22;38455;52.710;6.502;2023-12-20T08:10:28;7.40;99.90
52555;DHT22;38455;52.710;6.502;2023-12-20T08:12:55;7.40;99.90
52555;DHT22;38455;52.710;6.502;2023-12-20T08:15:21;7.40;99.90
52555;DHT22;38455;52.710;6.502;2023-12-20T08:17:46;7.40;99.90
52555;DHT22;38455;52.710;6.502;2023-12-20T08:20:12;7.40;99.90
52555;DHT22;38455;52.710;6.502;2023-12-20T08:22:38;7.40;99.90
52555;DHT22;38455;52.710;6.502;2023-12-20T08:25:04;7.40;99.90
52555;DHT22;38455;52.710;6.502;2023-12-20T08:27:29;7.50;99.90
52555;DHT22;38455;52.710;6.502;2023-12-20T08:29:57;7.50;99.90
52555;DHT22;38455;52.710;6.502;2023-12-20T08:32:25;7.50;99.90
52555;DHT22;38455;52.710;6.502;2023-12-20T08:34:51;7.50;99.90
52555;DHT22;38455;52.710;6.502;2023-12-20T08:37:17;7.60;99.90
52555;DHT22;38455;52.710;6.502;2023-12-20T08:39:43;7.50;99.90
52555;DHT22;38455;52.710;6.502;2023-12-20T08:42:10;7.60;99.90
52555;DHT22;38455;52.710;6.502;2023-12-20T08:44:35;7.60;99.90
52555;DHT22;38455;52.710;6.502;2023-12-20T08:47:01;7.60;99.90
52555;DHT22;38455;52.710;6.502;2023-12-20T08:49:27;7.60;99.90
52555;DHT22;38455;52.710;6.502;2023-12-20T08:51:53;7.60;99.90
52555;DHT22;38455;52.710;6.502;2023-12-20T08:54:19;7.60;99.90
52555;DHT22;38455;52.710;6.502;2023-12-20T08:56:45;7.60;99.90
52555;DHT22;38455;52.710;6.502;2023-12-20T08:59:11;7.60;99.90
52555;DHT22;38455;52.710;6.502;2023-12-20T09:01:37;7.70;99.90
52555;DHT22;38455;52.710;6.502;2023-12-20T09:04:03;7.80;99.90
52555;DHT22;38455;52.710;6.502;2023-12-20T09:06:29;7.80;99.90
52555;DHT22;38455;52.710;6.502;2023-12-20T09:08:54;7.80;99.90
52555;DHT22;38455;52.710;6.502;2023-12-20T09:11:20;7.90;99.90
52555;DHT22;38455;52.710;6.502;2023-12-20T09:13:45;7.90;99.90
52555;DHT22;38455;52.710;6.502;2023-12-20T09:16:11;7.90;99.90
52555;DHT22;38455;52.710;6.502;2023-12-20T09:18:38;7.90;99.90
52555;DHT22;38455;52.710;6.502;2023-12-20T09:21:04;7.90;99.90
52555;DHT22;38455;52.710;6.502;2023-12-20T09:23:30;8.00;99.90
52555;DHT22;38455;52.710;6.502;2023-12-20T09:25:55;8.00;99.90
52555;DHT22;38455;52.710;6.502;2023-12-20T09:28:21;8.00;99.90
52555;DHT22;38455;52.710;6.502;2023-12-20T09:30:47;8.00;99.90
52555;DHT22;38455;52.710;6.502;2023-12-20T09:33:13;8.10;99.90
52555;DHT22;38455;52.710;6.502;2023-12-20T09:35:39;8.10;99.90
52555;DHT22;38455;52.710;6.502;2023-12-20T09:38:05;8.00;99.90
52555;DHT22;38455;52.710;6.502;2023-12-20T09:40:32;7.90;99.90
52555;DHT22;38455;52.710;6.502;2023-12-20T09:43:20;8.00;99.90
52555;DHT22;38455;52.710;6.502;2023-12-20T09:45:47;8.10;99.90
52555;DHT22;38455;52.710;6.502;2023-12-20T09:48:13;8.30;99.90
52555;DHT22;38455;52.710;6.502;2023-12-20T09:50:41;8.50;99.90
52555;DHT22;38455;52.710;6.502;2023-12-20T09:53:14;8.70;99.90
52555;DHT22;38455;52.710;6.502;2023-12-20T09:55:41;8.60;99.90
52555;DHT22;38455;52.710;6.502;2023-12-20T09:58:07;8.70;99.90
52555;DHT22;38455;52.710;6.502;2023-12-20T10:00:35;8.90;99.90
52555;DHT22;38455;52.710;6.502;2023-12-20T10:03:01;9.00;99.90
52555;DHT22;38455;52.710;6.502;2023-12-20T10:05:31;8.90;99.90
52555;DHT22;38455;52.710;6.502;2023-12-20T10:07:58;8.80;99.90
52555;DHT22;38455;52.710;6.502;2023-12-20T10:10:24;8.50;99.90
52555;DHT22;38455;52.710;6.502;2023-12-20T10:15:28;7.90;99.90
52555;DHT22;38455;52.710;6.502;2023-12-20T10:17:54;7.70;99.90
52555;DHT22;38455;52.710;6.502;2023-12-20T10:20:20;7.60;99.90
52555;DHT22;38455;52.710;6.502;2023-12-20T10:22:46;7.40;99.90
52555;DHT22;38455;52.710;6.502;2023-12-20T10:25:13;7.30;99.90
52555;DHT22;38455;52.710;6.502;2023-12-20T10:27:38;7.20;99.90
52555;DHT22;38455;52.710;6.502;2023-12-20T10:30:04;7.10;99.90
52555;DHT22;38455;52.710;6.502;2023-12-20T10:32:31;7.00;99.90
52555;DHT22;38455;52.710;6.502;2023-12-20T10:34:57;7.10;99.90
52555;DHT22;38455;52.710;6.502;2023-12-20T10:37:22;7.10;99.90
52555;DHT22;38455;52.710;6.502;2023-12-20T10:39:53;7.10;99.90
52555;DHT22;38455;52.710;6.502;2023-12-20T10:42:22;7.10;99.90
52555;DHT22;38455;52.710;6.502;2023-12-20T10:44:49;7.10;99.90
52555;DHT22;38455;52.710;6.502;2023-12-20T10:47:16;7.10;99.90
52555;DHT22;38455;52.710;6.502;2023-12-20T10:49:43;7.00;99.90
52555;DHT22;38455;52.710;6.502;2023-12-20T10:52:11;7.00;99.90
52555;DHT22;38455;52.710;6.502;2023-12-20T10:54:39;7.10;99.90
52555;DHT22;38455;52.710;6.502;2023-12-20T10:57:05;7.10;99.90
52555;DHT22;38455;52.710;6.502;2023-12-20T10:59:33;7.10;99.90
52555;DHT22;38455;52.710;6.502;2023-12-20T11:02:02;7.10;99.90
52555;DHT22;38455;52.710;6.502;2023-12-20T11:04:49;7.10;99.90
52555;DHT22;38455;52.710;6.502;2023-12-20T11:07:32;7.10;99.90
52555;DHT22;38455;52.710;6.502;2023-12-20T11:13:10;7.10;99.90
52555;DHT22;38455;52.710;6.502;2023-12-20T11:15:37;7.10;99.90
52555;DHT22;38455;52.710;6.502;2023-12-20T11:18:04;7.10;99.90
52555;DHT22;38455;52.710;6.502;2023-12-20T11:20:38;7.00;99.90
52555;DHT22;38455;52.710;6.502;2023-12-20T11:23:04;7.10;99.90
52555;DHT22;38455;52.710;6.502;2023-12-20T11:25:53;7.10;99.90
52555;DHT22;38455;52.710;6.502;2023-12-20T11:28:23;7.10;99.90
52555;DHT22;38455;52.710;6.502;2023-12-20T11:30:54;7.10;99.90
52555;DHT22;38455;52.710;6.502;2023-12-20T11:33:24;7.20;99.90
52555;DHT22;38455;52.710;6.502;2023-12-20T11:35:51;7.30;99.90
52555;DHT22;38455;52.710;6.502;2023-12-20T11:38:17;7.40;99.90
52555;DHT22;38455;52.710;6.502;2023-12-20T11:40:43;7.40;99.90
52555;DHT22;38455;52.710;6.502;2023-12-20T11:43:09;7.50;99.90
52555;DHT22;38455;52.710;6.502;2023-12-20T11:45:35;7.50;99.90
52555;DHT22;38455;52.710;6.502;2023-12-20T11:48:02;7.50;99.90
52555;DHT22;38455;52.710;6.502;2023-12-20T11:50:28;7.50;99.90
52555;DHT22;38455;52.710;6.502;2023-12-20T11:52:55;7.40;99.90
52555;DHT22;38455;52.710;6.502;2023-12-20T11:55:22;7.30;99.90
52555;DHT22;38455;52.710;6.502;2023-12-20T11:57:47;7.40;99.90
52555;DHT22;38455;52.710;6.502;2023-12-20T12:00:14;7.40;99.90
52555;DHT22;38455;52.710;6.502;2023-12-20T12:02:40;7.40;99.90
52555;DHT22;38455;52.710;6.502;2023-12-20T12:05:07;7.40;99.90
52555;DHT22;38455;52.710;6.502;2023-12-20T12:07:34;7.40;99.90
52555;DHT22;38455;52.710;6.502;2023-12-20T12:10:00;7.30;99.90
52555;DHT22;38455;52.710;6.502;2023-12-20T12:12:26;7.30;99.90
52555;DHT22;38455;52.710;6.502;2023-12-20T12:14:53;7.40;99.90
52555;DHT22;38455;52.710;6.502;2023-12-20T12:17:20;7.30;99.90
52555;DHT22;38455;52.710;6.502;2023-12-20T12:19:45;7.40;99.90
52555;DHT22;38455;52.710;6.502;2023-12-20T12:22:15;7.30;99.90
52555;DHT22;38455;52.710;6.502;2023-12-20T12:24:46;7.40;99.90
52555;DHT22;38455;52.710;6.502;2023-12-20T12:27:13;7.40;99.90
52555;DHT22;38455;52.710;6.502;2023-12-20T12:29:38;7.40;99.90
52555;DHT22;38455;52.710;6.502;2023-12-20T12:32:08;7.30;99.90
52555;DHT22;38455;52.710;6.502;2023-12-20T12:34:35;7.30;99.90
52555;DHT22;38455;52.710;6.502;2023-12-20T12:37:01;7.20;99.90
52555;DHT22;38455;52.710;6.502;2023-12-20T12:39:27;7.20;99.90
52555;DHT22;38455;52.710;6.502;2023-12-20T12:41:56;7.20;99.90
52555;DHT22;38455;52.710;6.502;2023-12-20T12:44:25;7.20;99.90
52555;DHT22;38455;52.710;6.502;2023-12-20T12:46:51;7.20;99.90
52555;DHT22;38455;52.710;6.502;2023-12-20T12:49:19;7.10;99.90
52555;DHT22;38455;52.710;6.502;2023-12-20T12:51:45;7.10;99.90
52555;DHT22;38455;52.710;6.502;2023-12-20T12:54:11;7.10;99.90
52555;DHT22;38455;52.710;6.502;2023-12-20T12:56:39;7.00;99.90
52555;DHT22;38455;52.710;6.502;2023-12-20T12:59:05;7.00;99.90
52555;DHT22;38455;52.710;6.502;2023-12-20T13:01:31;6.90;99.90
52555;DHT22;38455;52.710;6.502;2023-12-20T13:03:57;6.90;99.90
52555;DHT22;38455;52.710;6.502;2023-12-20T13:06:22;6.80;99.90
52555;DHT22;38455;52.710;6.502;2023-12-20T13:08:48;6.70;99.90
52555;DHT22;38455;52.710;6.502;2023-12-20T13:11:14;6.70;99.90
52555;DHT22;38455;52.710;6.502;2023-12-20T13:13:40;6.70;99.90
52555;DHT22;38455;52.710;6.502;2023-12-20T13:16:06;6.70;99.90
52555;DHT22;38455;52.710;6.502;2023-12-20T13:18:31;6.60;99.90
52555;DHT22;38455;52.710;6.502;2023-12-20T13:20:57;6.50;99.90
52555;DHT22;38455;52.710;6.502;2023-12-20T13:23:23;6.50;99.90
52555;DHT22;38455;52.710;6.502;2023-12-20T13:25:49;6.50;99.90
52555;DHT22;38455;52.710;6.502;2023-12-20T13:28:14;6.50;99.90
52555;DHT22;38455;52.710;6.502;2023-12-20T13:30:40;6.50;99.90
52555;DHT22;38455;52.710;6.502;2023-12-20T13:33:06;6.50;99.90
52555;DHT22;38455;52.710;6.502;2023-12-20T13:35:32;6.60;99.90
52555;DHT22;38455;52.710;6.502;2023-12-20T13:38:00;6.60;99.90
52555;DHT22;38455;52.710;6.502;2023-12-20T13:40:26;6.60;99.90
52555;DHT22;38455;52.710;6.502;2023-12-20T13:42:52;6.70;99.90
52555;DHT22;38455;52.710;6.502;2023-12-20T13:45:18;6.60;99.90
52555;DHT22;38455;52.710;6.502;2023-12-20T13:47:44;6.70;99.90
52555;DHT22;38455;52.710;6.502;2023-12-20T13:50:09;6.70;99.90
52555;DHT22;38455;52.710;6.502;2023-12-20T13:52:35;6.70;99.90
52555;DHT22;38455;52.710;6.502;2023-12-20T13:55:02;6.70;99.90
52555;DHT22;38455;52.710;6.502;2023-12-20T13:57:27;6.70;99.90
52555;DHT22;38455;52.710;6.502;2023-12-20T13:59:55;6.80;99.90
52555;DHT22;38455;52.710;6.502;2023-12-20T14:02:23;6.80;99.90
52555;DHT22;38455;52.710;6.502;2023-12-20T14:04:48;6.80;99.90
52555;DHT22;38455;52.710;6.502;2023-12-20T14:07:14;6.90;99.90
52555;DHT22;38455;52.710;6.502;2023-12-20T14:09:40;6.90;99.90
52555;DHT22;38455;52.710;6.502;2023-12-20T14:12:11;6.90;99.90
52555;DHT22;38455;52.710;6.502;2023-12-20T14:14:36;7.00;99.90
52555;DHT22;38455;52.710;6.502;2023-12-20T14:17:02;7.00;99.90
52555;DHT22;38455;52.710;6.502;2023-12-20T14:19:29;7.00;99.90
52555;DHT22;38455;52.710;6.502;2023-12-20T14:21:55;7.00;99.90
52555;DHT22;38455;52.710;6.502;2023-12-20T14:24:20;7.00;99.90
52555;DHT22;38455;52.710;6.502;2023-12-20T14:26:46;6.90;99.90
52555;DHT22;38455;52.710;6.502;2023-12-20T14:29:11;7.00;99.90
52555;DHT22;38455;52.710;6.502;2023-12-20T14:31:37;7.00;99.90
52555;DHT22;38455;52.710;6.502;2023-12-20T14:34:04;7.00;99.90
52555;DHT22;38455;52.710;6.502;2023-12-20T14:36:30;7.10;99.90
52555;DHT22;38455;52.710;6.502;2023-12-20T14:38:56;7.10;99.90
52555;DHT22;38455;52.710;6.502;2023-12-20T14:41:22;7.10;99.90
52555;DHT22;38455;52.710;6.502;2023-12-20T14:43:50;7.10;99.90
52555;DHT22;38455;52.710;6.502;2023-12-20T14:46:17;7.10;99.90
52555;DHT22;38455;52.710;6.502;2023-12-20T14:48:43;7.10;99.90
52555;DHT22;38455;52.710;6.502;2023-12-20T14:51:08;7.20;99.90
52555;DHT22;38455;52.710;6.502;2023-12-20T14:53:34;7.10;99.90
52555;DHT22;38455;52.710;6.502;2023-12-20T14:56:03;7.20;99.90
52555;DHT22;38455;52.710;6.502;2023-12-20T14:58:29;7.20;99.90
52555;DHT22;38455;52.710;6.502;2023-12-20T15:00:55;7.30;99.90
52555;DHT22;38455;52.710;6.502;2023-12-20T15:03:21;7.30;99.90
52555;DHT22;38455;52.710;6.502;2023-12-20T15:05:48;7.40;99.90
52555;DHT22;38455;52.710;6.502;2023-12-20T15:08:14;7.40;99.90
52555;DHT22;38455;52.710;6.502;2023-12-20T15:10:40;7.40;99.90
52555;DHT22;38455;52.710;6.502;2023-12-20T15:13:06;7.50;99.90
52555;DHT22;38455;52.710;6.502;2023-12-20T15:15:31;7.50;99.90
52555;DHT22;38455;52.710;6.502;2023-12-20T15:17:59;7.50;99.90
52555;DHT22;38455;52.710;6.502;2023-12-20T15:20:25;7.50;99.90
52555;DHT22;38455;52.710;6.502;2023-12-20T15:22:50;7.60;99.90
52555;DHT22;38455;52.710;6.502;2023-12-20T15:25:16;7.60;99.90
52555;DHT22;38455;52.710;6.502;2023-12-20T15:27:48;7.60;99.90
52555;DHT22;38455;52.710;6.502;2023-12-20T15:30:21;7.60;99.90
52555;DHT22;38455;52.710;6.502;2023-12-20T15:32:48;7.60;99.90
52555;DHT22;38455;52.710;6.502;2023-12-20T15:35:14;7.60;99.90
52555;DHT22;38455;52.710;6.502;2023-12-20T15:37:40;7.70;99.90
52555;DHT22;38455;52.710;6.502;2023-12-20T15:40:08;7.60;99.90
52555;DHT22;38455;52.710;6.502;2023-12-20T15:42:39;7.60;99.90
52555;DHT22;38455;52.710;6.502;2023-12-20T15:45:05;7.60;99.90